Latest Coastal Weather Observations for Williamtown

IDN60701

Issued at 5:02 pm EST Monday 26 September 2016 (issued every 10 minutes, with the page automatically refreshed every 10 minutes)

About coastal observations | Map of coastal stations | Coastal observations for NSW | Marine services | Other Formats
Station Details ID: 061078 Name: WILLIAMTOWN RAAF Lat: -32.79 Lon: 151.84 Height: 9.0 m
Data from the previous 72 hours. | See also: Recent months at Williamtown
Date/Time
EST
Temp
°C
Wind Pressure Rain since
9am
mm
Weather Cloud Vis
km
Sea
Height
m
Swell
Dir  Spd
kts
Gust
kts
hPa Trend Height
m
Period
s
Dir
26/04:30pm 18.8 SE 10 14 1008.3 - 0.0 - Partly cloudy 10 - - - -
26/04:00pm 21.3 SSE 8 - 1008.2 - 0.0 - - 10 - - - -
26/03:30pm 22.5 W 9 - 1008.2 - 0.0 - - 10 - - - -
26/03:00pm 22.5 W 13 - 1008.3 F 0.0 - - 10 - - - -
26/02:30pm 22.2 W 12 - 1008.6 - 0.0 - - 10 - - - -
26/02:00pm 22.1 W 12 - 1008.9 - 0.0 - - 10 - - - -
26/01:30pm 21.8 WNW 14 - 1009.3 - 0.0 - - 10 - - - -
26/01:00pm 21.4 WNW 10 - 1009.8 - 0.0 - - 10 - - - -
26/12:30pm 20.3 W 12 15 1010.3 - 0.0 - Mostly clear 10 - - - -
26/12:00pm 19.9 W 12 15 1010.8 F 0.0 - Mostly clear 10 - - - -
26/11:30am 19.2 NNW 10 12 1011.3 - 0.0 - Mostly clear 10 - - - -
26/11:00am 18.7 NNW 10 12 1011.7 - 0.0 - Mostly clear 10 - - - -
26/10:30am 17.9 WNW 11 16 1012.2 - 0.0 - - 10 - - - -
26/10:00am 17.4 W 7 10 1012.5 - 0.0 - Mostly clear 10 - - - -
26/09:30am 16.8 W 9 14 1012.9 - 0.0 - Mostly clear 10 - - - -
26/09:00am 16.5 W 10 14 1013.1 F 2.2 - Mostly clear 10 - - - -
26/08:30am 15.6 WNW 9 13 1013.2 - 2.2 - Mostly clear 10 - - - -
26/08:00am 14.5 WNW 9 12 1013.1 - 2.2 - Mostly clear 10 - - - -
26/07:30am 13.7 WNW 11 14 1013.3 - 2.2 - Mostly clear 10 - - - -
26/07:01am 13.1 WNW 11 15 1012.9 - 2.2 - Mostly clear 10 - - - -
26/07:00am 13.2 WNW 11 15 1012.9 - 2.2 - - 10 - - - -
26/06:30am 12.3 WNW 10 13 1012.7 - 2.0 - Partly cloudy 10 - - - -
26/06:00am 11.5 WNW 9 11 1012.4 S 2.0 - Partly cloudy 10 - - - -
26/05:30am 11.5 WNW 8 10 1012.4 - 2.0 - - 10 - - - -
26/05:00am 12.0 WNW 9 11 1012.1 - 2.0 - - 10 - - - -
26/04:30am 12.4 WNW 10 13 1011.7 - 2.0 - - 10 - - - -
26/04:00am 11.3 WNW 6 8 1011.6 - 2.0 - - 10 - - - -
26/03:30am 11.5 W 7 8 1011.2 - 2.0 - - 10 - - - -
26/03:00am 11.6 WSW 6 7 1011.1 R 2.0 - - 10 - - - -
26/02:30am 12.1 W 6 8 1010.9 - 2.0 - - 10 - - - -
26/02:00am 12.4 WNW 8 10 1011.0 - 2.0 - - 10 - - - -
26/01:30am 12.3 WNW 7 8 1010.9 - 2.0 - - 10 - - - -
26/01:00am 12.8 WNW 8 9 1011.0 - 2.0 - - 10 - - - -
26/12:30am 13.4 WNW 8 9 1011.0 - 2.0 - Partly cloudy 10 - - - -
26/12:00am 13.6 WNW 9 11 1011.1 R 2.0 - Cloudy 10 - - - -
 
Date/Time
EST
Temp
°C
Wind Pressure Rain since
9am
mm
Weather Cloud Vis
km
Sea
Height
m
Swell
Dir  Spd
kts
Gust
kts
hPa Trend Height
m
Period
s
Dir
25/11:30pm 13.4 WNW 9 11 1011.0 - 2.0 - Partly cloudy 10 - - - -
25/11:00pm 12.9 W 9 11 1010.8 - 2.0 - Partly cloudy 10 - - - -
25/10:30pm 12.6 WSW 7 8 1010.6 - 2.0 - - 10 - - - -
25/10:00pm 12.8 WSW 7 8 1010.4 - 2.0 - - 10 - - - -
25/09:30pm 13.1 WSW 7 8 1010.4 - 2.0 - - 10 - - - -
25/09:00pm 13.7 WSW 5 6 1010.0 R 2.0 Drizzle Mostly clear 10 - - - -
25/08:30pm 14.0 WSW 6 8 1010.2 - 2.0 - Partly cloudy 10 - - - -
25/08:00pm 14.3 WSW 3 5 1010.0 - 2.0 - Cloudy 10 - - - -
25/07:30pm 14.2 WSW 3 5 1009.7 - 2.0 - Partly cloudy 10 - - - -
25/07:00pm 14.8 WSW 6 7 1009.2 - 2.0 - Partly cloudy 10 - - - -
25/06:30pm 14.8 WSW 3 4 1008.7 - 2.0 - Partly cloudy 10 - - - -
25/06:00pm 15.0 WSW 4 5 1008.2 R 2.0 - Partly cloudy 10 - - - -
25/05:30pm 15.5 SSW 4 6 1008.0 - 2.0 - Cloudy 10 - - - -
25/05:00pm 15.6 SE 5 6 1007.4 - 2.0 - Partly cloudy 10 - - - -
25/04:30pm 14.9 NNE 4 6 1006.8 - 2.0 - Partly cloudy 10 - - - -
25/04:00pm 15.3 N 5 7 1006.3 - 1.8 - Partly cloudy 10 - - - -
25/03:35pm 15.8 S 15 25 1005.9 - 0.0 - Partly cloudy 10 - - - -
25/03:30pm 17.8 SW 14 25 1005.5 - 0.0 - Partly cloudy 10 - - - -
25/03:00pm 21.8 WNW 14 20 1004.9 R 0.0 - Mostly cloudy 10 - - - -
25/02:30pm 21.4 WNW 14 18 1004.9 - 0.0 - Partly cloudy 10 - - - -
25/02:00pm 20.5 WNW 13 17 1004.9 - 0.0 - Partly cloudy 10 - - - -
25/01:30pm 21.4 WNW 14 18 1004.9 - 0.0 - Partly cloudy 10 - - - -
25/01:00pm 20.7 W 14 18 1005.0 - 0.0 - Partly cloudy 10 - - - -
25/12:30pm 20.5 WNW 13 19 1005.0 - 0.0 - - 10 - - - -
25/12:00pm 20.7 WNW 13 17 1005.2 F 0.0 - Mostly clear 10 - - - -
25/11:30am 20.5 WNW 14 19 1005.3 - 0.0 - - 10 - - - -
25/11:00am 20.3 WNW 15 20 1005.4 - 0.0 - - 10 - - - -
25/10:30am 19.1 WNW 17 21 1006.0 - 0.0 - - 10 - - - -
25/10:00am 17.6 WNW 13 18 1006.7 - 0.0 - Partly cloudy 10 - - - -
25/09:30am 17.2 NW 12 16 1006.9 - 0.0 - Cloudy 10 - - - -
25/09:00am 15.6 WNW 10 14 1007.1 F 2.6 Rain Cloudy 10 - - - -
25/08:30am 14.6 WNW 8 10 1007.5 - 2.6 - Partly cloudy 10 - - - -
25/08:00am 14.3 WSW 7 8 1007.7 - 2.6 - Partly cloudy 10 - - - -
25/07:30am 13.8 WSW 5 7 1007.7 - 2.6 - Partly cloudy 10 - - - -
25/07:00am 13.6 WSW 6 8 1007.7 - 2.0 - Partly cloudy 10 - - - -
25/06:30am 13.9 W 8 11 1007.6 - 1.0 - Partly cloudy 10 - - - -
25/06:00am 14.3 W 7 10 1007.2 S 0.4 Showers Cloudy 10 - - - -
25/05:30am 14.5 W 4 6 1006.7 - 0.0 - Partly cloudy 10 - - - -
25/05:00am 14.6 W 4 5 1006.4 - 0.0 - Partly cloudy 10 - - - -
25/04:30am 14.9 NW 3 5 1006.1 - 0.0 - Partly cloudy 10 - - - -
25/04:00am 15.0 NW 5 6 1006.2 - 0.0 - Partly cloudy 10 - - - -
25/03:30am 15.2 NW 7 8 1005.8 - 0.0 - Partly cloudy 10 - - - -
25/03:00am 15.1 NW 7 8 1005.9 F 0.0 - Cloudy 10 - - - -
25/02:30am 14.7 NW 5 7 1006.0 - 0.0 - Partly cloudy 10 - - - -
25/02:00am 14.6 W 3 4 1005.9 - 0.0 - Partly cloudy 10 - - - -
25/01:30am 15.7 N 3 4 1006.8 - 0.0 - Partly cloudy 10 - - - -
25/01:00am 15.7 NNW 3 4 1006.9 - 0.0 - - 10 - - - -
25/12:30am 16.1 N 5 6 1007.1 - 0.0 - - 10 - - - -
25/12:00am 15.8 NNW 6 7 1007.5 F 0.0 - Cloudy 10 - - - -
 
Date/Time
EST
Temp
°C
Wind Pressure Rain since
9am
mm
Weather Cloud Vis
km
Sea
Height
m
Swell
Dir  Spd
kts
Gust
kts
hPa Trend Height
m
Period
s
Dir
24/11:30pm 16.2 N 7 9 1007.2 - 0.0 - - 10 - - - -
24/11:00pm 16.0 N 7 9 1007.6 - 0.0 - - 10 - - - -
24/10:30pm 15.9 N 7 10 1007.6 - 0.0 - - 10 - - - -
24/10:00pm 16.2 N 8 10 1007.8 - 0.0 - - 10 - - - -
24/09:30pm 16.3 NNE 8 10 1008.3 - 0.0 - - 10 - - - -
24/09:00pm 16.1 N 7 9 1009.0 F 0.0 - Partly cloudy 10 - - - -
24/08:30pm 16.4 N 6 8 1008.9 - 0.0 - - 10 - - - -
24/08:00pm 16.7 NNE 6 7 1008.9 - 0.0 - - 10 - - - -
24/07:30pm 17.2 NE 5 7 1008.5 - 0.0 - - 10 - - - -
24/07:00pm 17.6 ENE 6 7 1008.3 - 0.0 - - 10 - - - -
24/06:30pm 18.0 ENE 7 9 1008.4 - 0.0 - Partly cloudy 10 - - - -
24/06:00pm 18.5 ENE 5 7 1008.2 F 0.0 - Cloudy 10 - - - -
24/05:30pm 18.9 E 6 8 1008.0 - 0.0 - Partly cloudy 10 - - - -
24/05:00pm 19.2 E 7 10 1007.9 - 0.0 - Partly cloudy 10 - - - -
24/04:30pm 19.7 ESE 8 11 1007.6 - 0.0 - - 10 - - - -
24/04:00pm 20.8 ESE 9 11 1007.4 - 0.0 - - 10 - - - -
24/03:30pm 20.7 ESE 9 12 1007.3 - 0.0 - - 10 - - - -
24/03:00pm 20.8 SE 11 14 1007.6 F 0.0 - - 10 - - - -
24/02:30pm 21.3 SE 10 14 1007.9 - 0.0 - - 10 - - - -
24/02:00pm 20.8 SE 9 13 1008.4 - 0.0 - - 10 - - - -
24/01:30pm 21.3 SE 8 11 1008.9 - 0.0 - - 10 - - - -
24/01:00pm 22.0 SSE 10 12 1009.3 - 0.0 - - 10 - - - -
24/12:30pm 21.2 SSE 8 10 1009.7 - 0.0 - - 10 - - - -
24/12:00pm 21.1 SE 6 10 1010.1 F 0.0 - - 10 - - - -
24/11:30am 20.7 SE 10 15 1010.6 - 0.0 - Partly cloudy 10 - - - -
24/11:00am 21.2 SSW 6 9 1011.0 - 0.0 - - 10 - - - -
24/10:30am 20.6 SSW 7 11 1011.4 - 0.0 - - 10 - - - -
24/10:00am 20.2 SSW 7 9 1011.7 - 0.0 - - 10 - - - -
24/09:30am 19.2 WSW 6 9 1012.0 - 0.0 - - 10 - - - -
24/09:00am 18.8 W 7 10 1012.4 F 0.0 - - 10 - - - -
24/08:30am 18.1 WNW 9 12 1012.6 - 0.0 - - 10 - - - -
24/08:00am 17.7 WSW 8 11 1012.7 - 0.0 - - 10 - - - -
24/07:30am 16.1 W 8 9 1012.6 - 0.0 - - 10 - - - -
24/07:00am 14.6 WNW 9 12 1012.3 - 0.0 - - 10 - - - -
24/06:30am 12.8 WNW 7 8 1011.9 - 0.0 - - 10 - - - -
24/06:00am 11.7 NW 6 7 1011.8 F 0.0 - - 10 - - - -
24/05:30am 11.6 WNW 8 9 1011.5 - 0.0 - - 10 - - - -
24/05:00am 11.8 WNW 9 11 1011.3 - 0.0 - - 10 - - - -
24/04:30am 11.5 WNW 8 10 1011.0 - 0.0 - - 10 - - - -
24/04:00am 11.6 WNW 9 10 1010.8 - 0.0 - Partly cloudy 10 - - - -
24/03:30am 12.0 WNW 8 9 1010.8 - 0.0 - Cloudy 10 - - - -
24/03:00am 11.7 WNW 8 9 1010.8 R 0.0 - Mostly cloudy 10 - - - -
24/02:30am 11.2 WNW 8 9 1010.8 - 0.0 - Partly cloudy 10 - - - -
24/02:00am 11.5 WNW 8 9 1010.9 - 0.0 - - 10 - - - -
24/01:30am 11.6 WNW 8 9 1011.0 - 0.0 - - 10 - - - -
24/01:00am 11.8 WNW 7 8 1011.1 - 0.0 - - 10 - - - -
24/12:30am 12.4 WNW 7 8 1011.3 - 0.0 - - 10 - - - -
24/12:00am 13.1 W 7 8 1011.4 R 0.0 - - 10 - - - -
 
Date/Time
EST
Temp
°C
Wind Pressure Rain since
9am
mm
Weather Cloud Vis
km
Sea
Height
m
Swell
Dir  Spd
kts
Gust
kts
hPa Trend Height
m
Period
s
Dir
23/11:30pm 12.8 W 7 8 1011.5 - 0.0 - - 10 - - - -
23/11:00pm 12.6 WNW 8 9 1011.6 - 0.0 - - 10 - - - -
23/10:30pm 13.1 WSW 7 7 1011.6 - 0.0 - - 10 - - - -
23/10:00pm 13.3 WSW 7 8 1011.7 - 0.0 - - 10 - - - -
23/09:30pm 14.8 WSW 6 8 1011.9 - 0.0 - - 10 - - - -
23/09:00pm 14.2 WSW 6 8 1012.1 F 0.0 - - 10 - - - -
23/08:30pm 16.3 SW 5 10 1012.0 - 0.0 - Partly cloudy 10 - - - -
23/08:00pm 16.9 SW 7 10 1012.1 - 0.0 - Cloudy 10 - - - -
23/07:30pm 17.4 - - - 1012.1 - 0.0 - Cloudy 10 - - - -
23/07:00pm 17.6 - - - 1011.8 - 0.0 - Cloudy 10 - - - -
23/06:30pm 17.7 - - - 1011.5 - 0.0 - Cloudy 10 - - - -
23/06:00pm 17.4 - - - 1011.0 F 0.0 - Mostly clear 10 - - - -
23/05:30pm 17.5 - - - 1010.7 - 0.0 - - 10 - - - -

Other Formats:

Comma delimited format used in spreadsheet applications
http://www.bom.gov.au/fwo/IDN60701/IDN60701.94776.axf

JavaScript Object Notation format (JSON) in row-major order
http://www.bom.gov.au/fwo/IDN60701/IDN60701.94776.json